createdAt,value
2023-01-29T00:01:20.796Z,101273.66
2023-01-29T00:03:50.459Z,101274.97
2023-01-29T00:06:17.129Z,101271.47
2023-01-29T00:08:43.841Z,101275.03
2023-01-29T00:11:10.566Z,101274.34
2023-01-29T00:13:37.198Z,101275.25
2023-01-29T00:16:04.450Z,101283.34
2023-01-29T00:18:31.432Z,101278.84
2023-01-29T00:20:58.187Z,101281.09
2023-01-29T00:23:25.292Z,101282.22
2023-01-29T00:25:51.978Z,101289.06
2023-01-29T00:28:18.979Z,101292.38
2023-01-29T00:30:45.675Z,101287.31
2023-01-29T00:33:13.673Z,101279.59
2023-01-29T00:35:41.439Z,101281.72
2023-01-29T00:38:08.500Z,101291.25
2023-01-29T00:40:57.470Z,101289.12
2023-01-29T00:43:43.261Z,101294.94
2023-01-29T00:46:10.451Z,101294.84
2023-01-29T00:48:37.474Z,101296.97
2023-01-29T00:51:04.232Z,101303.72
2023-01-29T00:53:30.976Z,101305.75
2023-01-29T00:55:57.690Z,101293.72
2023-01-29T00:58:28.421Z,101298.09
2023-01-29T01:00:56.275Z,101302.75
2023-01-29T01:03:23.079Z,101294.94
2023-01-29T01:05:49.845Z,101297.31
2023-01-29T01:08:34.922Z,101296.03
2023-01-29T01:11:02.869Z,101299.44
2023-01-29T01:13:29.842Z,101299.81
2023-01-29T01:15:56.624Z,101287.56
2023-01-29T01:18:23.480Z,101295.06
2023-01-29T01:20:52.929Z,101297.06
2023-01-29T01:23:20.401Z,101296.28
2023-01-29T01:25:47.171Z,101293.44
2023-01-29T01:28:13.961Z,101296.84
2023-01-29T01:30:40.747Z,101300.16
2023-01-29T01:33:07.709Z,101296.50
2023-01-29T01:35:34.468Z,101292.09
2023-01-29T01:38:01.115Z,101297.41
2023-01-29T01:40:27.888Z,101296.91
2023-01-29T01:42:56.068Z,101286.62
2023-01-29T01:45:26.196Z,101297.09
2023-01-29T01:47:55.291Z,101300.66
2023-01-29T01:50:24.661Z,101298.66
2023-01-29T01:52:53.790Z,101312.16
2023-01-29T01:55:24.141Z,101304.22
2023-01-29T01:57:53.709Z,101307.47
2023-01-29T02:00:22.289Z,101301.69
2023-01-29T02:03:07.706Z,101306.06
2023-01-29T02:05:53.807Z,101314.63
2023-01-29T02:08:44.949Z,101327.66
2023-01-29T02:11:11.935Z,101318.88
2023-01-29T02:13:38.759Z,101322.22
2023-01-29T02:16:05.638Z,101319.97
2023-01-29T02:18:38.240Z,101325.81
2023-01-29T02:21:15.449Z,101328.06
2023-01-29T02:23:54.333Z,101323.72
2023-01-29T02:26:23.987Z,101322.47
2023-01-29T02:28:52.979Z,101322.91
2023-01-29T02:31:33.657Z,101323.00
2023-01-29T02:34:19.080Z,101334.13
2023-01-29T02:36:50.748Z,101325.34
2023-01-29T02:39:17.466Z,101327.59
2023-01-29T02:41:49.913Z,101328.87
2023-01-29T02:44:24.926Z,101328.50
2023-01-29T02:46:52.324Z,101339.28
2023-01-29T02:49:19.005Z,101344.31
2023-01-29T02:51:58.577Z,101340.88
2023-01-29T02:54:30.899Z,101346.47
2023-01-29T02:57:03.620Z,101350.84
2023-01-29T02:59:34.478Z,101352.81
2023-01-29T03:02:11.774Z,101355.37
2023-01-29T03:04:43.137Z,101353.62
2023-01-29T03:07:22.613Z,101351.94
2023-01-29T03:09:52.871Z,101349.63
2023-01-29T03:12:34.243Z,101339.38
2023-01-29T03:15:16.728Z,101341.59
2023-01-29T03:17:58.510Z,101352.69
2023-01-29T03:20:29.927Z,101353.28
2023-01-29T03:22:58.399Z,101350.19
2023-01-29T03:25:45.578Z,101356.44
2023-01-29T03:28:32.920Z,101348.53
2023-01-29T03:31:20.320Z,101357.50
2023-01-29T03:33:50.279Z,101349.06
2023-01-29T03:36:19.257Z,101349.38
2023-01-29T03:38:46.088Z,101354.63
2023-01-29T03:41:22.508Z,101355.75
2023-01-29T03:44:05.658Z,101352.34
2023-01-29T03:46:32.289Z,101351.59
2023-01-29T03:49:17.689Z,101352.16
2023-01-29T03:51:50.364Z,101353.09
2023-01-29T03:54:26.775Z,101352.88
2023-01-29T03:57:16.867Z,101353.28
2023-01-29T03:59:55.053Z,101355.03
2023-01-29T04:02:28.247Z,101361.25
2023-01-29T04:05:00.217Z,101367.81
2023-01-29T04:07:29.899Z,101357.59
2023-01-29T04:10:00.204Z,101356.72
2023-01-29T04:12:29.866Z,101358.09
2023-01-29T04:14:59.599Z,101360.50
2023-01-29T04:17:33.096Z,101345.06
2023-01-29T04:20:00.763Z,101349.50
2023-01-29T04:22:37.478Z,101352.69
2023-01-29T04:25:08.691Z,101351.78
2023-01-29T04:27:43.899Z,101347.59
2023-01-29T04:30:17.096Z,101343.84
2023-01-29T04:32:53.037Z,101341.94
2023-01-29T04:35:32.163Z,101341.16
2023-01-29T04:38:01.886Z,101345.25
2023-01-29T04:40:37.866Z,101346.59
2023-01-29T04:43:13.846Z,101349.75
2023-01-29T04:45:40.453Z,101345.03
2023-01-29T04:48:10.315Z,101339.53
2023-01-29T04:50:42.237Z,101339.56
2023-01-29T04:53:09.336Z,101340.62
2023-01-29T04:55:54.816Z,101340.88
2023-01-29T04:58:34.287Z,101339.78
2023-01-29T05:01:02.448Z,101334.97
2023-01-29T05:03:30.162Z,101344.53
2023-01-29T05:05:58.196Z,101344.72
2023-01-29T05:08:25.955Z,101335.16
2023-01-29T05:10:54.938Z,101345.87
2023-01-29T05:13:23.047Z,101346.41
2023-01-29T05:15:53.119Z,101353.31
2023-01-29T05:18:20.066Z,101350.22
2023-01-29T05:20:47.384Z,101353.91
2023-01-29T05:23:21.607Z,101357.12
2023-01-29T05:25:49.377Z,101358.50
2023-01-29T05:28:19.205Z,101363.19
2023-01-29T05:30:45.941Z,101354.31
2023-01-29T05:33:14.440Z,101359.63
2023-01-29T05:35:41.747Z,101361.56
2023-01-29T05:38:08.780Z,101353.75
2023-01-29T05:40:36.492Z,101355.91
2023-01-29T05:43:04.104Z,101366.34
2023-01-29T05:45:31.019Z,101363.00
2023-01-29T05:48:00.681Z,101362.03
2023-01-29T05:50:27.523Z,101368.22
2023-01-29T05:52:58.503Z,101360.41
2023-01-29T05:55:25.210Z,101370.06
2023-01-29T05:57:51.949Z,101368.69
2023-01-29T06:00:18.943Z,101374.84
2023-01-29T06:02:46.569Z,101368.72
2023-01-29T06:05:13.351Z,101377.41
2023-01-29T06:07:45.349Z,101375.53
2023-01-29T06:10:16.642Z,101375.06
2023-01-29T06:12:44.037Z,101379.47
2023-01-29T06:15:11.545Z,101381.44
2023-01-29T06:17:38.218Z,101376.78
2023-01-29T06:20:05.920Z,101385.63
2023-01-29T06:22:33.329Z,101386.28
2023-01-29T06:25:00.042Z,101384.16
2023-01-29T06:27:26.783Z,101389.47
2023-01-29T06:29:53.508Z,101395.25
2023-01-29T06:32:20.301Z,101411.78
2023-01-29T06:34:49.449Z,101411.00
2023-01-29T06:37:16.493Z,101413.53
2023-01-29T06:39:43.230Z,101411.78
2023-01-29T06:42:11.391Z,101417.88
2023-01-29T06:44:38.107Z,101422.12
2023-01-29T06:47:04.934Z,101428.62
2023-01-29T06:49:31.716Z,101430.34
2023-01-29T06:51:58.396Z,101433.13
2023-01-29T06:54:25.107Z,101426.75
2023-01-29T06:56:52.108Z,101435.28
2023-01-29T06:59:18.770Z,101435.56
2023-01-29T07:01:45.601Z,101435.34
2023-01-29T07:04:12.599Z,101431.06
2023-01-29T07:06:39.321Z,101439.69
2023-01-29T07:09:06.084Z,101435.31
2023-01-29T07:11:34.419Z,101435.97
2023-01-29T07:14:01.168Z,101438.69
2023-01-29T07:16:36.593Z,101431.81
2023-01-29T07:19:03.344Z,101430.53
2023-01-29T07:21:30.119Z,101435.16
2023-01-29T07:23:57.256Z,101430.66
2023-01-29T07:26:24.092Z,101429.38
2023-01-29T07:28:50.812Z,101435.03
2023-01-29T07:31:17.660Z,101430.00
2023-01-29T07:33:44.900Z,101439.84
2023-01-29T07:36:12.047Z,101425.16
2023-01-29T07:38:38.728Z,101436.56
2023-01-29T07:41:06.618Z,101429.94
2023-01-29T07:43:33.547Z,101431.47
2023-01-29T07:46:04.146Z,101439.75
2023-01-29T07:48:30.907Z,101430.50
2023-01-29T07:50:58.627Z,101429.38
2023-01-29T07:53:25.360Z,101433.56
2023-01-29T07:55:52.083Z,101429.53
2023-01-29T07:58:18.849Z,101422.84
2023-01-29T08:00:45.587Z,101431.62
2023-01-29T08:03:13.477Z,101423.03
2023-01-29T08:05:40.216Z,101416.34
2023-01-29T08:08:07.990Z,101415.91
2023-01-29T08:10:35.416Z,101412.87
2023-01-29T08:13:03.025Z,101426.69
2023-01-29T08:15:30.130Z,101418.66
2023-01-29T08:17:58.333Z,101423.19
2023-01-29T08:20:25.275Z,101421.78
2023-01-29T08:22:58.754Z,101421.19
2023-01-29T08:25:25.720Z,101424.00
2023-01-29T08:27:52.666Z,101426.69
2023-01-29T08:30:19.400Z,101428.47
2023-01-29T08:32:46.178Z,101427.63
2023-01-29T08:35:12.854Z,101437.50
2023-01-29T08:37:39.536Z,101439.03
2023-01-29T08:40:06.557Z,101432.97
2023-01-29T08:42:33.343Z,101434.75
2023-01-29T08:45:00.260Z,101443.34
2023-01-29T08:47:28.636Z,101444.31
2023-01-29T08:49:55.468Z,101454.84
2023-01-29T08:52:22.118Z,101447.09
2023-01-29T08:54:48.794Z,101455.81
2023-01-29T08:57:15.501Z,101458.38
2023-01-29T08:59:42.198Z,101452.97
2023-01-29T09:02:11.004Z,101452.28
2023-01-29T09:04:37.787Z,101475.41
2023-01-29T09:07:04.495Z,101469.28
2023-01-29T09:09:31.130Z,101473.34
2023-01-29T09:11:57.851Z,101459.72
2023-01-29T09:14:24.537Z,101462.91
2023-01-29T09:16:51.289Z,101466.56
2023-01-29T09:19:18.034Z,101477.22
2023-01-29T09:21:44.664Z,101467.66
2023-01-29T09:24:11.562Z,101471.22
2023-01-29T09:26:39.864Z,101483.72
2023-01-29T09:29:06.950Z,101489.00
2023-01-29T09:31:33.913Z,101488.88
2023-01-29T09:34:00.620Z,101487.97
2023-01-29T09:36:27.399Z,101490.72
2023-01-29T09:38:54.171Z,101492.50
2023-01-29T09:41:23.717Z,101494.56
2023-01-29T09:43:53.638Z,101495.34
2023-01-29T09:46:23.477Z,101498.16
2023-01-29T09:48:55.611Z,101502.31
2023-01-29T09:51:27.041Z,101495.75
2023-01-29T09:53:57.350Z,101500.22
2023-01-29T09:56:29.050Z,101496.88
2023-01-29T09:59:00.471Z,101492.56
2023-01-29T10:01:32.264Z,101492.38
2023-01-29T10:04:05.106Z,101488.47
2023-01-29T10:06:50.537Z,101498.56
2023-01-29T10:09:29.998Z,101495.78
2023-01-29T10:11:58.129Z,101497.38
2023-01-29T10:14:25.178Z,101490.84
2023-01-29T10:16:55.039Z,101494.69
2023-01-29T10:19:24.892Z,101489.28
2023-01-29T10:22:09.565Z,101493.12
2023-01-29T10:24:42.577Z,101490.31
2023-01-29T10:27:16.715Z,101489.78
2023-01-29T10:29:44.441Z,101490.03
2023-01-29T10:32:16.195Z,101490.84
2023-01-29T10:34:45.887Z,101498.03
2023-01-29T10:37:19.889Z,101489.50
2023-01-29T10:39:46.780Z,101490.78
2023-01-29T10:42:19.817Z,101490.81
2023-01-29T10:44:53.733Z,101489.97
2023-01-29T10:47:23.581Z,101486.81
2023-01-29T10:49:58.167Z,101495.72
2023-01-29T10:52:43.748Z,101495.31
2023-01-29T10:55:25.657Z,101492.62
2023-01-29T10:57:52.345Z,101484.94
2023-01-29T11:00:23.913Z,101481.34
2023-01-29T11:02:51.414Z,101487.72
2023-01-29T11:05:34.523Z,101492.09
2023-01-29T11:08:03.215Z,101493.22
2023-01-29T11:10:31.867Z,101487.63
2023-01-29T11:12:59.329Z,101485.56
2023-01-29T11:15:28.637Z,101485.34
2023-01-29T11:18:06.179Z,101479.81
2023-01-29T11:20:34.727Z,101485.72
2023-01-29T11:23:01.673Z,101472.88
2023-01-29T11:25:30.098Z,101477.66
2023-01-29T11:27:57.963Z,101464.13
2023-01-29T11:30:27.797Z,101464.72
2023-01-29T11:33:00.807Z,101465.78
2023-01-29T11:35:28.097Z,101456.56
2023-01-29T11:38:06.189Z,101452.72
2023-01-29T11:40:35.162Z,101442.16
2023-01-29T11:43:19.321Z,101440.16
2023-01-29T11:45:46.660Z,101435.97
2023-01-29T11:48:21.248Z,101420.88
2023-01-29T11:50:52.402Z,101434.69
2023-01-29T11:53:31.487Z,101422.09
2023-01-29T11:55:58.286Z,101419.16
2023-01-29T11:58:27.919Z,101418.00
2023-01-29T12:00:55.774Z,101412.84
2023-01-29T12:03:34.745Z,101397.88
2023-01-29T12:06:01.739Z,101394.03
2023-01-29T12:08:32.077Z,101387.03
2023-01-29T12:11:07.909Z,101379.94
2023-01-29T12:13:36.279Z,101384.53
2023-01-29T12:16:26.240Z,101383.31
2023-01-29T12:18:59.463Z,101373.38
2023-01-29T12:21:39.387Z,101374.91
2023-01-29T12:24:26.209Z,101377.16
2023-01-29T12:27:01.640Z,101373.94
2023-01-29T12:29:28.398Z,101371.06
2023-01-29T12:31:59.488Z,101384.22
2023-01-29T12:34:32.044Z,101378.66
2023-01-29T12:37:21.504Z,101367.34
2023-01-29T12:39:49.394Z,101372.72
2023-01-29T12:42:18.809Z,101372.97
2023-01-29T12:44:48.384Z,101373.56
2023-01-29T12:47:23.273Z,101370.72
2023-01-29T12:49:57.779Z,101372.78
2023-01-29T12:52:24.458Z,101368.87
2023-01-29T12:54:51.146Z,101368.56
2023-01-29T12:57:25.435Z,101358.75
2023-01-29T13:00:06.860Z,101356.47
2023-01-29T13:02:39.769Z,101362.28
2023-01-29T13:05:27.166Z,101360.69
2023-01-29T13:08:14.083Z,101357.22
2023-01-29T13:10:47.100Z,101359.50
2023-01-29T13:13:23.799Z,101351.44
2023-01-29T13:15:52.621Z,101350.22
2023-01-29T13:18:37.900Z,101343.16
2023-01-29T13:21:05.342Z,101350.41
2023-01-29T13:23:38.299Z,101341.56
2023-01-29T13:26:05.948Z,101339.25
2023-01-29T13:28:32.788Z,101326.41
2023-01-29T13:31:11.744Z,101328.94
2023-01-29T13:33:39.106Z,101334.41
2023-01-29T13:36:06.200Z,101330.53
2023-01-29T13:38:35.633Z,101324.84
2023-01-29T13:41:04.568Z,101321.25
2023-01-29T13:43:35.727Z,101319.06
2023-01-29T13:46:09.030Z,101318.31
2023-01-29T13:48:41.439Z,101324.69
2023-01-29T13:51:15.768Z,101316.81
2023-01-29T13:53:43.471Z,101318.91
2023-01-29T13:56:30.406Z,101319.66
2023-01-29T13:58:57.672Z,101307.06
2023-01-29T14:01:43.098Z,101300.28
2023-01-29T14:04:27.004Z,101307.66
2023-01-29T14:06:55.109Z,101296.25
2023-01-29T14:09:31.673Z,101303.22
2023-01-29T14:11:58.381Z,101303.84
2023-01-29T14:14:43.761Z,101299.41
2023-01-29T14:17:10.528Z,101289.00
2023-01-29T14:19:37.257Z,101298.13
2023-01-29T14:22:05.070Z,101301.19
2023-01-29T14:24:31.876Z,101303.09
2023-01-29T14:26:58.775Z,101312.50
2023-01-29T14:29:34.162Z,101316.94
2023-01-29T14:32:12.450Z,101312.38
2023-01-29T14:34:44.412Z,101302.34
2023-01-29T14:37:17.367Z,101311.97
2023-01-29T14:39:44.016Z,101315.63
2023-01-29T14:42:22.920Z,101314.56
2023-01-29T14:44:55.706Z,101317.16
2023-01-29T14:47:28.441Z,101312.13
2023-01-29T14:49:56.699Z,101310.56
2023-01-29T14:52:27.086Z,101314.19
2023-01-29T14:54:57.627Z,101314.59
2023-01-29T14:57:25.264Z,101319.13
2023-01-29T14:59:59.718Z,101315.69
2023-01-29T15:02:37.258Z,101319.28
2023-01-29T15:05:07.760Z,101318.59
2023-01-29T15:07:42.468Z,101324.78
2023-01-29T15:10:38.751Z,101319.13
2023-01-29T15:13:13.635Z,101321.25
2023-01-29T15:15:44.445Z,101328.50
2023-01-29T15:18:20.037Z,101320.94
2023-01-29T15:20:47.167Z,101320.94
2023-01-29T15:23:30.528Z,101323.12
2023-01-29T15:25:59.567Z,101320.50
2023-01-29T15:28:27.127Z,101328.69
2023-01-29T15:30:57.545Z,101314.00
2023-01-29T15:33:24.415Z,101327.84
2023-01-29T15:36:06.381Z,101319.91
2023-01-29T15:38:33.833Z,101311.47
2023-01-29T15:41:01.637Z,101307.09
2023-01-29T15:43:28.462Z,101306.78
2023-01-29T15:46:00.178Z,101312.44
2023-01-29T15:48:33.102Z,101311.63
2023-01-29T15:51:00.139Z,101312.06
2023-01-29T15:53:33.648Z,101304.72
2023-01-29T15:56:01.179Z,101308.91
2023-01-29T15:58:32.585Z,101306.53
2023-01-29T16:01:00.217Z,101306.25
2023-01-29T16:03:28.735Z,101301.09
2023-01-29T16:05:55.639Z,101309.41
2023-01-29T16:08:24.100Z,101300.03
2023-01-29T16:10:53.930Z,101309.28
2023-01-29T16:13:24.787Z,101307.81
2023-01-29T16:15:56.064Z,101310.75
2023-01-29T16:18:54.176Z,101306.78
2023-01-29T16:21:28.731Z,101306.66
2023-01-29T16:23:56.845Z,101308.63
2023-01-29T16:26:28.664Z,101306.28
2023-01-29T16:28:55.796Z,101310.69
2023-01-29T16:31:24.271Z,101312.28
2023-01-29T16:33:51.289Z,101319.31
2023-01-29T16:36:19.346Z,101312.56
2023-01-29T16:39:03.222Z,101308.63
2023-01-29T16:41:36.100Z,101319.62
2023-01-29T16:44:04.967Z,101313.16
2023-01-29T16:46:47.914Z,101319.00
2023-01-29T16:49:20.844Z,101317.97
2023-01-29T16:51:47.569Z,101324.56
2023-01-29T16:54:23.574Z,101321.75
2023-01-29T16:56:54.907Z,101322.91
2023-01-29T16:59:27.259Z,101331.66
2023-01-29T17:01:57.167Z,101330.69
2023-01-29T17:04:23.846Z,101329.25
2023-01-29T17:06:54.754Z,101330.00
2023-01-29T17:09:23.590Z,101331.41
2023-01-29T17:11:56.151Z,101334.38
2023-01-29T17:14:23.856Z,101329.09
2023-01-29T17:16:53.710Z,101331.72
2023-01-29T17:19:20.961Z,101336.53
2023-01-29T17:21:47.787Z,101331.84
2023-01-29T17:24:14.522Z,101329.28
2023-01-29T17:26:41.876Z,101327.97
2023-01-29T17:29:19.321Z,101324.81
2023-01-29T17:31:46.553Z,101328.19
2023-01-29T17:34:14.987Z,101330.25
2023-01-29T17:36:42.217Z,101319.50
2023-01-29T17:39:18.321Z,101328.16
2023-01-29T17:41:47.598Z,101331.31
2023-01-29T17:44:14.389Z,101325.59
2023-01-29T17:46:41.122Z,101324.81
2023-01-29T17:49:24.753Z,101324.81
2023-01-29T17:51:55.112Z,101312.06
2023-01-29T17:54:22.573Z,101319.31
2023-01-29T17:56:49.988Z,101311.78
2023-01-29T17:59:20.038Z,101308.53
2023-01-29T18:01:47.234Z,101303.31
2023-01-29T18:04:14.353Z,101299.09
2023-01-29T18:06:41.721Z,101304.69
2023-01-29T18:09:10.976Z,101297.63
2023-01-29T18:11:37.679Z,101290.69
2023-01-29T18:14:13.917Z,101284.84
2023-01-29T18:16:42.034Z,101287.06
2023-01-29T18:19:22.384Z,101283.84
2023-01-29T18:21:49.256Z,101282.09
2023-01-29T18:24:16.437Z,101293.00
2023-01-29T18:26:43.247Z,101288.78
2023-01-29T18:29:09.980Z,101292.25
2023-01-29T18:31:36.711Z,101287.59
2023-01-29T18:34:03.862Z,101279.22
2023-01-29T18:36:30.622Z,101282.22
2023-01-29T18:38:58.255Z,101275.09
2023-01-29T18:41:25.269Z,101270.00
2023-01-29T18:43:52.995Z,101266.59
2023-01-29T18:46:20.409Z,101272.88
2023-01-29T18:48:47.140Z,101264.66
2023-01-29T18:51:13.888Z,101261.13
2023-01-29T18:53:40.850Z,101257.63
2023-01-29T18:56:07.833Z,101258.31
2023-01-29T18:58:38.601Z,101253.66
2023-01-29T19:01:09.715Z,101254.47
2023-01-29T19:03:36.775Z,101256.34
2023-01-29T19:06:06.994Z,101252.06
2023-01-29T19:08:34.136Z,101252.62
2023-01-29T19:11:02.606Z,101249.38
2023-01-29T19:13:32.834Z,101247.97
2023-01-29T19:15:59.696Z,101256.47
2023-01-29T19:18:26.976Z,101252.34
2023-01-29T19:20:54.068Z,101242.81
2023-01-29T19:23:21.028Z,101247.59
2023-01-29T19:25:48.159Z,101238.31
2023-01-29T19:28:15.506Z,101245.38
2023-01-29T19:30:42.291Z,101241.94
2023-01-29T19:33:09.953Z,101238.34
2023-01-29T19:35:36.591Z,101234.28
2023-01-29T19:38:04.550Z,101235.06
2023-01-29T19:40:31.298Z,101238.53
2023-01-29T19:42:58.587Z,101236.63
2023-01-29T19:45:49.707Z,101240.34
2023-01-29T19:48:14.755Z,101240.00
2023-01-29T19:50:42.028Z,101237.78
2023-01-29T19:53:08.713Z,101238.44
2023-01-29T19:55:35.348Z,101237.97
2023-01-29T19:58:03.717Z,101229.66
2023-01-29T20:00:30.449Z,101238.25
2023-01-29T20:02:57.190Z,101237.63
2023-01-29T20:05:24.281Z,101236.31
2023-01-29T20:07:51.040Z,101231.41
2023-01-29T20:10:18.239Z,101224.56
2023-01-29T20:12:46.003Z,101225.78
2023-01-29T20:15:15.920Z,101227.22
2023-01-29T20:17:43.721Z,101224.84
2023-01-29T20:20:10.748Z,101218.84
2023-01-29T20:22:37.467Z,101212.09
2023-01-29T20:25:04.490Z,101208.66
2023-01-29T20:27:31.250Z,101209.41
2023-01-29T20:29:58.111Z,101209.78
2023-01-29T20:32:25.169Z,101204.19
2023-01-29T20:34:52.797Z,101204.34
2023-01-29T20:37:19.844Z,101203.66
2023-01-29T20:39:46.576Z,101201.66
2023-01-29T20:42:13.308Z,101199.81
2023-01-29T20:44:40.071Z,101197.72
2023-01-29T20:47:06.817Z,101194.59
2023-01-29T20:49:33.548Z,101196.34
2023-01-29T20:52:00.207Z,101187.22
2023-01-29T20:54:27.477Z,101185.56
2023-01-29T20:56:54.327Z,101182.41
2023-01-29T20:59:21.129Z,101180.38
2023-01-29T21:01:47.953Z,101176.44
2023-01-29T21:04:14.959Z,101181.66
2023-01-29T21:06:41.629Z,101175.16
2023-01-29T21:09:08.316Z,101173.84
2023-01-29T21:11:34.980Z,101177.94
2023-01-29T21:14:02.094Z,101174.84
2023-01-29T21:16:28.922Z,101176.78
2023-01-29T21:18:56.943Z,101173.63
2023-01-29T21:21:23.964Z,101176.88
2023-01-29T21:23:50.861Z,101177.72
2023-01-29T21:26:18.948Z,101184.69
2023-01-29T21:28:46.275Z,101183.81
2023-01-29T21:31:14.832Z,101189.28
2023-01-29T21:33:41.619Z,101187.69
2023-01-29T21:36:10.260Z,101188.12
2023-01-29T21:38:36.999Z,101191.50
2023-01-29T21:41:05.251Z,101181.09
2023-01-29T21:43:32.140Z,101190.75
2023-01-29T21:46:00.015Z,101182.81
2023-01-29T21:48:27.115Z,101184.22
2023-01-29T21:50:53.853Z,101187.84
2023-01-29T21:53:20.868Z,101187.38
2023-01-29T21:55:47.769Z,101189.56
2023-01-29T21:58:14.889Z,101185.97
2023-01-29T22:00:41.657Z,101185.75
2023-01-29T22:03:08.445Z,101189.44
2023-01-29T22:05:35.248Z,101183.41
2023-01-29T22:08:02.605Z,101175.81
2023-01-29T22:10:30.745Z,101175.34
2023-01-29T22:12:59.420Z,101166.81
2023-01-29T22:15:26.162Z,101172.31
2023-01-29T22:17:52.820Z,101169.63
2023-01-29T22:20:19.918Z,101167.66
2023-01-29T22:22:46.988Z,101177.28
2023-01-29T22:25:13.782Z,101177.84
2023-01-29T22:27:40.521Z,101172.78
2023-01-29T22:30:07.542Z,101168.56
2023-01-29T22:32:34.386Z,101157.41
2023-01-29T22:35:01.108Z,101154.78
2023-01-29T22:37:27.925Z,101153.75
2023-01-29T22:39:54.640Z,101152.53
2023-01-29T22:42:21.470Z,101156.53
2023-01-29T22:44:48.783Z,101156.25
2023-01-29T22:47:15.752Z,101155.16
2023-01-29T22:49:42.421Z,101151.44
2023-01-29T22:52:12.171Z,101156.66
2023-01-29T22:54:43.441Z,101147.38
2023-01-29T22:57:11.408Z,101151.09
2023-01-29T22:59:38.348Z,101146.63
2023-01-29T23:02:05.388Z,101143.38
2023-01-29T23:04:32.128Z,101138.25
2023-01-29T23:06:59.061Z,101150.47
2023-01-29T23:09:25.947Z,101156.75
2023-01-29T23:11:52.619Z,101157.22
2023-01-29T23:14:19.377Z,101154.03
2023-01-29T23:16:46.058Z,101153.56
2023-01-29T23:19:12.713Z,101155.41
2023-01-29T23:21:40.020Z,101146.25
2023-01-29T23:24:07.769Z,101146.78
2023-01-29T23:26:52.919Z,101139.38
2023-01-29T23:29:20.253Z,101132.88
2023-01-29T23:31:47.289Z,101137.09
2023-01-29T23:34:14.547Z,101124.66
2023-01-29T23:36:41.396Z,101126.53
2023-01-29T23:39:08.227Z,101130.44
2023-01-29T23:41:35.092Z,101125.97
2023-01-29T23:44:02.102Z,101128.59
2023-01-29T23:46:30.102Z,101117.97
2023-01-29T23:48:56.886Z,101125.28
2023-01-29T23:51:23.617Z,101111.03
2023-01-29T23:53:50.370Z,101111.72
2023-01-29T23:56:17.352Z,101111.28
2023-01-29T23:58:45.080Z,101106.53
